Houghton, MI

6:26 PM EST on January 31, 2015 (GMT -0500)
Hancock: Sylvan Estates | Change Station
CLOSE
Current Station
Personal Weather Station
Location: Hancock, MI
Elevation: 917 ft
Nearby Weather Stations

Elev 917 ft 47.14 °N, 88.60 °W | Updated 6 minutes ago

Overcast
Overcast
12.5 °F
Feels Like 13 °F
N
2.0
Wind Variable Wind from East
Gusts 8.0 mph

Today
High -- | Low -- °F
--% Chance of Precip.
Yesterday
High -- | Low -- °F
Precip. -- in
8:21 AM 5:54 PM
Waxing Gibbous, 92% visible
Pressure 30.28 in
Visibility 4.0 miles
Clouds Scattered Clouds 2200 ft
Overcast 3200 ft
Windchill 13 °F
Dew Point 8 °F
Humidity 83%
Rainfall 0.00 in
Snow Depth Not available.
UV 0 out of 12
Pollen .10 out of 12
Air Quality Not available.
Flu Activity Not available.
SPECI KCMX 312302Z AUTO 03007KT 4SM -SN SCT022 OVC032 M12/M16 A3028 RMK AO2 P0000 T11221161

More Conditions Fewer Conditions

Pressure 30.28 in
Visibility 4.0 miles
Clouds Scattered Clouds 2200 ft
Overcast 3200 ft
Windchill 13 °F
Dew Point 8 °F
Humidity 83%
Rainfall 0.00 in
Snow Depth Not available.
UV 0 out of 12
Pollen .10 out of 12
Air Quality Not available.
Flu Activity Not available.
SPECI KCMX 312302Z AUTO 03007KT 4SM -SN SCT022 OVC032 M12/M16 A3028 RMK AO2 P0000 T11221161

More Conditions Fewer Conditions

10-Day Weather Forecast

Almanac

Astronomy

Jan. 31, 2015 Rise Set
Actual Time
Civil Twilight
Nautical Twilight
Astronomical Twilight
Moon
Length of Visible Light
Length of Day
Tomorrow will be .
, % of the Moon is Illuminated

Today's Extremes

State Highs State Lows

Community

WunderPhotos

Upload Photos

1,792,247 photos uploaded!

WunderBlogs® & News

Nearby

Air Quality

  Air Quality AQ Index Pollutant
Not available.

Snow Depth

Station Depth Elevation

Earthquake Activity

City Distance Mag. Time & Date
Minimum magnitude displayed is 2.5.

Coastal Water Temperatures

Place Temperature

Nearby Weather Stations